KATT

Austin City Airport

Austin, Texas, USA
METAR KATT 172151Z AUTO 21004KT 10SM CLR 37/16 A3000 RMK AO2 SLP141 T03720161
Observed Flight Rules
Jul-17 @ 21:51 UTC (60 minutes ago) Visual Flight Rules
Wind Visibility Clouds
210° at 4 knots 10 miles
  • Clear skies
Temperatures Readings
Current 37°C / 99°F
Dewpoint 16°C / 61°F
Humidity 29%
Altimeter 30" Hg
Pressure 1014.1 hPa
Elevation 201
METAR KATT 172151Z AUTO 21004KT 10SM CLR 37/16 A3000 RMK AO2 SLP141 T03720161
Observed Flight Rules
Jul-17 @ 21:51 UTC
(60 minutes ago)
VFR
Wind Visibility
210° at 4 knots 10 miles
Clouds
  • Clear skies
Temperature Dewpoint
37°C / 99°F 16°C / 61°F
Humidity Altimeter Pressure
29% 30" Hg 1014.1 hPa